createdAt,value
2023-12-12T00:02:16.281Z,56.40
2023-12-12T00:04:43.522Z,56.44
2023-12-12T00:07:10.705Z,56.27
2023-12-12T00:09:37.884Z,56.20
2023-12-12T00:12:05.572Z,56.08
2023-12-12T00:14:32.739Z,56.21
2023-12-12T00:17:00.093Z,56.08
2023-12-12T00:19:27.219Z,55.69
2023-12-12T00:21:54.385Z,55.22
2023-12-12T00:24:21.550Z,55.73
2023-12-12T00:26:49.274Z,56.04
2023-12-12T00:29:16.455Z,55.66
2023-12-12T00:31:43.707Z,55.73
2023-12-12T00:34:11.121Z,55.96
2023-12-12T00:36:38.283Z,55.95
2023-12-12T00:39:05.371Z,55.93
2023-12-12T00:41:34.386Z,56.13
2023-12-12T00:44:01.706Z,55.91
2023-12-12T00:46:28.975Z,55.78
2023-12-12T00:48:56.354Z,55.96
2023-12-12T00:51:23.520Z,56.04
2023-12-12T00:53:51.252Z,56.15
2023-12-12T00:56:18.365Z,56.05
2023-12-12T00:58:45.497Z,55.89
2023-12-12T01:01:15.197Z,56.05
2023-12-12T01:03:42.613Z,56.73
2023-12-12T01:06:09.987Z,56.45
2023-12-12T01:08:37.104Z,56.44
2023-12-12T01:11:04.467Z,56.52
2023-12-12T01:13:31.673Z,56.69
2023-12-12T01:15:58.983Z,57.04
2023-12-12T01:18:27.991Z,56.72
2023-12-12T01:20:55.325Z,56.71
2023-12-12T01:23:22.984Z,56.86
2023-12-12T01:25:50.241Z,56.72
2023-12-12T01:28:17.433Z,56.27
2023-12-12T01:30:44.741Z,56.51
2023-12-12T01:33:11.970Z,56.15
2023-12-12T01:35:39.041Z,56.24
2023-12-12T01:38:06.172Z,56.63
2023-12-12T01:40:33.399Z,56.70
2023-12-12T01:43:07.468Z,56.83
2023-12-12T01:45:34.779Z,56.81
2023-12-12T01:48:02.448Z,56.93
2023-12-12T01:50:29.726Z,56.76
2023-12-12T01:52:57.284Z,56.90
2023-12-12T01:55:25.059Z,56.75
2023-12-12T01:57:52.537Z,57.32
2023-12-12T02:00:19.787Z,57.35
2023-12-12T02:02:47.114Z,57.20
2023-12-12T02:05:14.434Z,57.10
2023-12-12T02:07:42.644Z,56.92
2023-12-12T02:10:10.998Z,57.03
2023-12-12T02:12:38.196Z,56.93
2023-12-12T02:15:06.250Z,56.54
2023-12-12T02:17:33.770Z,57.14
2023-12-12T02:20:01.297Z,56.87
2023-12-12T02:22:28.882Z,56.69
2023-12-12T02:24:56.133Z,57.05
2023-12-12T02:27:23.448Z,56.92
2023-12-12T02:29:50.575Z,56.80
2023-12-12T02:32:17.967Z,57.12
2023-12-12T02:34:45.626Z,56.61
2023-12-12T02:37:12.775Z,56.66
2023-12-12T02:39:39.923Z,56.67
2023-12-12T02:42:06.981Z,56.25
2023-12-12T02:44:34.052Z,56.43
2023-12-12T02:47:01.169Z,56.45
2023-12-12T02:49:28.323Z,56.07
2023-12-12T02:51:55.791Z,56.63
2023-12-12T02:54:23.011Z,56.19
2023-12-12T02:56:50.294Z,55.80
2023-12-12T02:59:17.537Z,56.42
2023-12-12T03:01:44.784Z,55.79
2023-12-12T03:04:12.144Z,55.80
2023-12-12T03:06:39.290Z,55.89
2023-12-12T03:09:06.506Z,55.71
2023-12-12T03:11:35.519Z,56.17
2023-12-12T03:14:02.680Z,55.67
2023-12-12T03:16:30.008Z,55.22
2023-12-12T03:18:57.260Z,55.01
2023-12-12T03:21:24.446Z,54.84
2023-12-12T03:23:51.649Z,55.67
2023-12-12T03:26:18.919Z,55.97
2023-12-12T03:28:46.131Z,56.50
2023-12-12T03:31:13.347Z,56.45
2023-12-12T03:33:40.663Z,55.87
2023-12-12T03:36:09.274Z,56.04
2023-12-12T03:38:36.502Z,55.66
2023-12-12T03:41:03.759Z,55.69
2023-12-12T03:43:31.025Z,55.55
2023-12-12T03:45:58.277Z,55.31
2023-12-12T03:48:25.591Z,55.43
2023-12-12T03:50:52.765Z,55.87
2023-12-12T03:53:19.901Z,55.89
2023-12-12T03:55:47.010Z,55.79
2023-12-12T03:58:14.309Z,55.45
2023-12-12T04:00:41.574Z,55.62
2023-12-12T04:03:09.880Z,55.63
2023-12-12T04:05:37.121Z,55.67
2023-12-12T04:08:05.751Z,56.18
2023-12-12T04:10:32.964Z,56.27
2023-12-12T04:13:00.689Z,56.70
2023-12-12T04:15:27.850Z,56.78
2023-12-12T04:17:55.218Z,57.23
2023-12-12T04:20:22.474Z,57.14
2023-12-12T04:22:49.766Z,57.35
2023-12-12T04:25:17.395Z,57.16
2023-12-12T04:27:44.641Z,57.09
2023-12-12T04:30:12.455Z,56.58
2023-12-12T04:32:39.981Z,56.85
2023-12-12T04:35:09.838Z,56.70
2023-12-12T04:37:37.120Z,56.56
2023-12-12T04:40:04.985Z,56.52
2023-12-12T04:42:32.072Z,56.29
2023-12-12T04:44:59.328Z,56.47
2023-12-12T04:47:26.548Z,56.48
2023-12-12T04:49:53.821Z,56.32
2023-12-12T04:52:21.239Z,56.22
2023-12-12T04:54:48.446Z,56.33
2023-12-12T04:57:15.623Z,55.85
2023-12-12T04:59:43.207Z,55.80
2023-12-12T05:02:10.274Z,56.29
2023-12-12T05:04:38.838Z,55.81
2023-12-12T05:07:05.986Z,55.33
2023-12-12T05:09:33.188Z,55.24
2023-12-12T05:12:00.243Z,54.97
2023-12-12T05:14:27.361Z,55.08
2023-12-12T05:17:01.419Z,55.39
2023-12-12T05:19:34.961Z,55.46
2023-12-12T05:22:02.263Z,55.39
2023-12-12T05:24:29.484Z,55.15
2023-12-12T05:26:56.607Z,54.79
2023-12-12T05:29:23.751Z,54.97
2023-12-12T05:31:50.945Z,54.86
2023-12-12T05:34:18.216Z,55.81
2023-12-12T05:36:45.393Z,55.29
2023-12-12T05:39:12.531Z,55.10
2023-12-12T05:41:39.687Z,54.68
2023-12-12T05:44:09.552Z,54.69
2023-12-12T05:46:38.881Z,54.85
2023-12-12T05:49:06.478Z,55.03
2023-12-12T05:51:35.617Z,55.42
2023-12-12T05:54:03.643Z,55.63
2023-12-12T05:56:30.877Z,56.02
2023-12-12T05:58:58.151Z,56.15
2023-12-12T06:01:25.309Z,56.92
2023-12-12T06:03:52.831Z,57.23
2023-12-12T06:06:22.066Z,57.65
2023-12-12T06:08:49.300Z,57.37
2023-12-12T06:11:17.458Z,57.19
2023-12-12T06:13:44.718Z,57.22
2023-12-12T06:16:12.706Z,57.01
2023-12-12T06:18:41.042Z,56.61
2023-12-12T06:21:08.392Z,56.90
2023-12-12T06:23:35.478Z,56.87
2023-12-12T06:26:05.019Z,57.12
2023-12-12T06:28:32.347Z,57.09
2023-12-12T06:30:59.569Z,56.94
2023-12-12T06:33:30.756Z,57.32
2023-12-12T06:35:58.431Z,57.25
2023-12-12T06:38:27.075Z,57.75
2023-12-12T06:40:55.839Z,57.80
2023-12-12T06:43:23.639Z,57.46
2023-12-12T06:45:50.860Z,57.38
2023-12-12T06:48:19.646Z,57.34
2023-12-12T06:50:47.584Z,56.91
2023-12-12T06:53:15.549Z,56.88
2023-12-12T06:55:43.026Z,57.03
2023-12-12T06:58:11.479Z,57.17
2023-12-12T07:00:41.391Z,57.03
2023-12-12T07:03:08.827Z,57.03
2023-12-12T07:05:40.400Z,56.98
2023-12-12T07:08:07.751Z,56.70
2023-12-12T07:10:35.001Z,56.90
2023-12-12T07:13:02.647Z,56.64
2023-12-12T07:15:32.452Z,56.56
2023-12-12T07:17:59.693Z,56.55
2023-12-12T07:20:26.886Z,56.78
2023-12-12T07:22:54.101Z,56.65
2023-12-12T07:25:21.779Z,56.27
2023-12-12T07:27:49.144Z,56.32
2023-12-12T07:30:16.338Z,56.72
2023-12-12T07:32:45.232Z,56.07
2023-12-12T07:35:15.600Z,55.95
2023-12-12T07:37:43.035Z,55.91
2023-12-12T07:40:11.163Z,55.84
2023-12-12T07:42:38.576Z,56.18
2023-12-12T07:45:08.243Z,55.72
2023-12-12T07:47:40.362Z,55.80
2023-12-12T07:50:10.906Z,55.37
2023-12-12T07:52:38.539Z,55.34
2023-12-12T07:55:07.320Z,55.76
2023-12-12T07:57:35.212Z,55.76
2023-12-12T08:00:02.701Z,55.62
2023-12-12T08:02:38.837Z,55.98
2023-12-12T08:05:07.467Z,55.49
2023-12-12T08:07:35.114Z,55.15
2023-12-12T08:10:03.136Z,54.93
2023-12-12T08:12:30.363Z,55.16
2023-12-12T08:14:57.629Z,54.71
2023-12-12T08:17:25.604Z,54.71
2023-12-12T08:19:52.942Z,55.26
2023-12-12T08:22:20.150Z,55.54
2023-12-12T08:24:51.837Z,55.25
2023-12-12T08:27:19.381Z,54.93
2023-12-12T08:29:48.959Z,54.83
2023-12-12T08:32:16.288Z,54.88
2023-12-12T08:34:43.710Z,54.70
2023-12-12T08:37:13.469Z,54.19
2023-12-12T08:39:40.999Z,53.99
2023-12-12T08:42:08.503Z,53.91
2023-12-12T08:44:36.081Z,53.68
2023-12-12T08:47:03.497Z,54.26
2023-12-12T08:49:31.162Z,54.16
2023-12-12T08:52:01.269Z,54.26
2023-12-12T08:54:28.472Z,54.28
2023-12-12T08:56:55.723Z,54.08
2023-12-12T08:59:23.077Z,54.49
2023-12-12T09:01:50.448Z,54.63
2023-12-12T09:04:18.314Z,54.38
2023-12-12T09:06:45.808Z,54.56
2023-12-12T09:09:13.903Z,54.44
2023-12-12T09:11:41.741Z,54.35
2023-12-12T09:14:09.713Z,54.74
2023-12-12T09:16:37.175Z,55.36
2023-12-12T09:19:04.650Z,55.88
2023-12-12T09:21:31.938Z,56.01
2023-12-12T09:23:59.258Z,55.84
2023-12-12T09:26:26.783Z,55.62
2023-12-12T09:28:53.909Z,55.60
2023-12-12T09:31:30.100Z,55.16
2023-12-12T09:33:57.689Z,55.33
2023-12-12T09:36:25.165Z,55.78
2023-12-12T09:38:52.283Z,55.87
2023-12-12T09:41:24.721Z,55.99
2023-12-12T09:43:52.881Z,55.73
2023-12-12T09:46:24.301Z,56.27
2023-12-12T09:48:51.981Z,56.18
2023-12-12T09:51:19.857Z,56.05
2023-12-12T09:53:50.180Z,55.50
2023-12-12T09:56:21.558Z,54.44
2023-12-12T09:58:50.300Z,54.05
2023-12-12T10:01:18.532Z,53.38
2023-12-12T10:03:46.502Z,53.97
2023-12-12T10:06:14.515Z,54.02
2023-12-12T10:08:42.397Z,53.54
2023-12-12T10:11:11.245Z,53.25
2023-12-12T10:13:52.528Z,52.80
2023-12-12T10:16:19.889Z,53.11
2023-12-12T10:18:52.268Z,52.01
2023-12-12T10:21:24.079Z,51.64
2023-12-12T10:23:54.152Z,52.51
2023-12-12T10:26:31.346Z,52.75
2023-12-12T10:29:00.621Z,52.08
2023-12-12T10:31:28.377Z,52.12
2023-12-12T10:33:58.082Z,51.39
2023-12-12T10:36:29.360Z,50.61
2023-12-12T10:39:11.912Z,51.40
2023-12-12T10:41:39.145Z,50.88
2023-12-12T10:44:10.148Z,51.32
2023-12-12T10:46:42.167Z,50.83
2023-12-12T10:49:12.393Z,50.17
2023-12-12T10:51:39.946Z,50.32
2023-12-12T10:54:08.105Z,49.44
2023-12-12T10:56:37.136Z,48.44
2023-12-12T10:59:55.655Z,47.38
2023-12-12T11:01:54.269Z,45.75
2023-12-12T11:04:22.735Z,45.20
2023-12-12T11:06:52.068Z,44.77
2023-12-12T11:09:22.286Z,43.03
2023-12-12T11:11:52.111Z,41.88
2023-12-12T11:14:20.894Z,41.15
2023-12-12T11:16:50.891Z,40.53
2023-12-12T11:19:19.504Z,39.47
2023-12-12T11:21:50.830Z,37.47
2023-12-12T11:24:20.236Z,37.11
2023-12-12T11:26:49.351Z,37.17
2023-12-12T11:29:24.539Z,35.59
2023-12-12T11:32:00.310Z,35.26
2023-12-12T11:34:36.534Z,33.55
2023-12-12T11:37:03.950Z,31.80
2023-12-12T11:39:50.579Z,32.59
2023-12-12T11:42:27.680Z,31.46
2023-12-12T11:44:59.024Z,31.96
2023-12-12T11:47:29.149Z,31.12
2023-12-12T11:50:16.738Z,30.33
2023-12-12T11:52:44.601Z,31.70
2023-12-12T11:55:24.692Z,30.79
2023-12-12T11:58:08.445Z,30.93
2023-12-12T12:00:38.849Z,34.25
2023-12-12T12:03:09.916Z,35.52
2023-12-12T12:05:37.950Z,34.11
2023-12-12T12:08:06.905Z,35.25
2023-12-12T12:10:34.433Z,36.37
2023-12-12T12:13:02.290Z,37.76
2023-12-12T12:15:29.769Z,39.36
2023-12-12T12:18:00.624Z,40.70
2023-12-12T12:20:27.999Z,40.97
2023-12-12T12:22:55.600Z,40.48
2023-12-12T12:25:28.585Z,41.05
2023-12-12T12:27:57.179Z,42.06
2023-12-12T12:30:26.685Z,42.12
2023-12-12T12:32:58.864Z,42.18
2023-12-12T12:35:26.321Z,42.34
2023-12-12T12:37:55.313Z,42.90
2023-12-12T12:40:40.290Z,42.92
2023-12-12T12:43:15.570Z,43.02
2023-12-12T12:45:43.049Z,42.98
2023-12-12T12:48:10.600Z,42.94
2023-12-12T12:50:40.608Z,42.89
2023-12-12T12:53:07.790Z,42.43
2023-12-12T12:55:35.169Z,42.80
2023-12-12T12:58:02.949Z,43.23
2023-12-12T13:00:31.806Z,43.47
2023-12-12T13:02:59.023Z,43.24
2023-12-12T13:05:27.428Z,43.31
2023-12-12T13:07:55.245Z,42.71
2023-12-12T13:10:35.007Z,42.20
2023-12-12T13:13:10.822Z,42.69
2023-12-12T13:15:38.145Z,43.00
2023-12-12T13:18:05.556Z,43.29
2023-12-12T13:20:32.742Z,43.49
2023-12-12T13:22:59.998Z,43.02
2023-12-12T13:25:27.362Z,42.36
2023-12-12T13:27:54.544Z,41.09
2023-12-12T13:30:22.129Z,39.47
2023-12-12T13:32:49.570Z,38.33
2023-12-12T13:35:27.193Z,37.87
2023-12-12T13:38:03.012Z,38.81
2023-12-12T13:40:30.327Z,39.15
2023-12-12T13:42:57.915Z,39.52
2023-12-12T13:45:25.581Z,40.32
2023-12-12T13:47:52.842Z,40.79
2023-12-12T13:50:20.711Z,40.92
2023-12-12T13:52:47.865Z,41.13
2023-12-12T13:55:15.161Z,41.61
2023-12-12T13:57:42.560Z,41.71
2023-12-12T14:00:11.129Z,41.63
2023-12-12T14:02:38.914Z,42.04
2023-12-12T14:05:07.070Z,42.17
2023-12-12T14:07:34.637Z,42.44
2023-12-12T14:10:02.439Z,42.25
2023-12-12T14:12:30.368Z,42.70
2023-12-12T14:14:57.848Z,42.72
2023-12-12T14:17:25.147Z,42.90
2023-12-12T14:19:52.614Z,43.30
2023-12-12T14:22:20.030Z,43.77
2023-12-12T14:24:50.760Z,44.06
2023-12-12T14:27:18.447Z,44.47
2023-12-12T14:29:45.768Z,44.84
2023-12-12T14:32:13.079Z,45.11
2023-12-12T14:34:41.496Z,45.24
2023-12-12T14:37:08.889Z,45.19
2023-12-12T14:39:36.612Z,45.56
2023-12-12T14:42:04.302Z,45.45
2023-12-12T14:44:31.866Z,45.87
2023-12-12T14:46:59.311Z,45.60
2023-12-12T14:49:26.676Z,45.64
2023-12-12T14:51:56.477Z,45.96
2023-12-12T14:54:23.869Z,46.12
2023-12-12T14:56:54.012Z,46.60
2023-12-12T14:59:22.883Z,46.39
2023-12-12T15:01:50.318Z,46.88
2023-12-12T15:04:17.645Z,47.33
2023-12-12T15:06:44.928Z,47.47
2023-12-12T15:09:12.958Z,46.75
2023-12-12T15:11:41.367Z,47.06
2023-12-12T15:14:09.459Z,46.92
2023-12-12T15:16:37.515Z,47.19
2023-12-12T15:19:07.332Z,47.25
2023-12-12T15:21:34.634Z,47.59
2023-12-12T15:24:01.938Z,47.19
2023-12-12T15:26:29.182Z,47.53
2023-12-12T15:28:57.343Z,47.15
2023-12-12T15:31:24.865Z,47.53
2023-12-12T15:33:52.253Z,47.42
2023-12-12T15:36:19.546Z,46.92
2023-12-12T15:38:48.614Z,46.86
2023-12-12T15:41:16.230Z,47.00
2023-12-12T15:43:44.483Z,46.95
2023-12-12T15:46:12.565Z,46.69
2023-12-12T15:48:40.336Z,46.77
2023-12-12T15:51:08.039Z,46.51
2023-12-12T15:53:35.149Z,46.37
2023-12-12T15:56:02.390Z,46.27
2023-12-12T15:58:30.528Z,46.66
2023-12-12T16:00:58.286Z,46.79
2023-12-12T16:03:25.566Z,46.72
2023-12-12T16:05:52.876Z,46.31
2023-12-12T16:08:20.049Z,45.91
2023-12-12T16:10:47.210Z,46.05
2023-12-12T16:13:14.567Z,46.00
2023-12-12T16:15:41.799Z,46.22
2023-12-12T16:18:09.490Z,46.10
2023-12-12T16:20:36.984Z,45.83
2023-12-12T16:23:07.737Z,45.53
2023-12-12T16:25:35.285Z,45.78
2023-12-12T16:28:02.848Z,45.94
2023-12-12T16:30:32.232Z,45.97
2023-12-12T16:33:01.137Z,46.38
2023-12-12T16:35:28.689Z,46.40
2023-12-12T16:37:56.034Z,46.74
2023-12-12T16:40:25.700Z,46.79
2023-12-12T16:42:52.928Z,46.60
2023-12-12T16:45:20.690Z,46.36
2023-12-12T16:47:48.027Z,46.41
2023-12-12T16:50:15.369Z,46.39
2023-12-12T16:52:43.023Z,46.74
2023-12-12T16:55:11.244Z,46.99
2023-12-12T16:57:38.677Z,47.13
2023-12-12T17:00:12.001Z,47.71
2023-12-12T17:02:39.563Z,47.63
2023-12-12T17:05:07.988Z,47.83
2023-12-12T17:07:39.641Z,47.81
2023-12-12T17:10:10.667Z,47.74
2023-12-12T17:12:39.180Z,48.24
2023-12-12T17:15:12.988Z,48.68
2023-12-12T17:17:40.411Z,48.41
2023-12-12T17:20:11.541Z,48.33
2023-12-12T17:22:39.778Z,48.26
2023-12-12T17:25:09.124Z,48.52
2023-12-12T17:27:38.388Z,48.97
2023-12-12T17:30:10.610Z,48.49
2023-12-12T17:32:38.335Z,48.54
2023-12-12T17:35:07.153Z,48.98
2023-12-12T17:37:35.011Z,49.16
2023-12-12T17:40:02.838Z,49.09
2023-12-12T17:42:33.374Z,48.59
2023-12-12T17:45:00.723Z,48.82
2023-12-12T17:47:30.293Z,48.94
2023-12-12T17:49:57.752Z,48.85
2023-12-12T17:52:25.076Z,48.66
2023-12-12T17:54:52.947Z,48.91
2023-12-12T17:57:21.071Z,48.51
2023-12-12T17:59:48.269Z,48.39
2023-12-12T18:02:15.418Z,48.73
2023-12-12T18:04:43.347Z,48.80
2023-12-12T18:07:13.171Z,49.03
2023-12-12T18:09:41.055Z,48.49
2023-12-12T18:12:08.715Z,48.24
2023-12-12T18:14:36.060Z,47.68
2023-12-12T18:17:05.099Z,47.93
2023-12-12T18:19:33.143Z,48.22
2023-12-12T18:22:00.624Z,48.03
2023-12-12T18:24:28.019Z,47.74
2023-12-12T18:26:57.221Z,47.48
2023-12-12T18:29:24.422Z,47.32
2023-12-12T18:31:51.831Z,47.68
2023-12-12T18:34:19.473Z,47.59
2023-12-12T18:36:47.222Z,47.95
2023-12-12T18:39:14.627Z,48.12
2023-12-12T18:41:45.257Z,48.42
2023-12-12T18:44:13.403Z,48.35
2023-12-12T18:46:43.246Z,48.31
2023-12-12T18:49:14.801Z,48.59
2023-12-12T18:51:42.738Z,48.60
2023-12-12T18:54:09.973Z,49.20
2023-12-12T18:56:38.881Z,49.20
2023-12-12T18:59:06.033Z,49.29
2023-12-12T19:01:33.412Z,49.37
2023-12-12T19:04:00.962Z,49.54
2023-12-12T19:06:28.602Z,49.78
2023-12-12T19:08:55.806Z,49.99
2023-12-12T19:11:23.780Z,49.85
2023-12-12T19:13:51.177Z,49.52
2023-12-12T19:16:20.008Z,49.07
2023-12-12T19:18:47.511Z,49.21
2023-12-12T19:21:14.719Z,49.55
2023-12-12T19:23:41.978Z,49.38
2023-12-12T19:26:09.066Z,49.40
2023-12-12T19:28:36.298Z,49.47
2023-12-12T19:31:05.669Z,49.26
2023-12-12T19:33:34.021Z,49.41
2023-12-12T19:36:06.055Z,49.42
2023-12-12T19:38:37.873Z,49.34
2023-12-12T19:41:05.587Z,49.41
2023-12-12T19:43:32.855Z,49.61
2023-12-12T19:46:00.013Z,49.43
2023-12-12T19:48:27.420Z,49.66
2023-12-12T19:50:54.665Z,49.63
2023-12-12T19:53:22.532Z,49.45
2023-12-12T19:55:49.892Z,48.98
2023-12-12T19:58:21.310Z,48.80
2023-12-12T20:00:48.850Z,48.89
2023-12-12T20:03:19.095Z,49.02
2023-12-12T20:05:46.336Z,49.31
2023-12-12T20:08:13.619Z,49.50
2023-12-12T20:10:41.404Z,49.77
2023-12-12T20:13:08.644Z,49.53
2023-12-12T20:15:36.452Z,49.35
2023-12-12T20:18:05.416Z,49.57
2023-12-12T20:20:32.688Z,49.80
2023-12-12T20:22:59.922Z,50.07
2023-12-12T20:25:27.392Z,50.19
2023-12-12T20:27:54.870Z,50.26
2023-12-12T20:30:22.419Z,50.56
2023-12-12T20:32:55.618Z,50.28
2023-12-12T20:35:30.438Z,50.37
2023-12-12T20:40:52.098Z,50.57
2023-12-12T20:43:48.659Z,50.67
2023-12-12T20:46:16.089Z,51.07
2023-12-12T20:48:58.801Z,51.19
2023-12-12T20:55:19.181Z,50.97
2023-12-12T20:58:04.964Z,50.86
2023-12-12T21:00:47.171Z,50.83
2023-12-12T21:04:43.458Z,50.59
2023-12-12T21:10:31.626Z,50.86
2023-12-12T21:13:09.697Z,50.52
2023-12-12T21:16:34.786Z,50.50
2023-12-12T21:19:42.379Z,50.89
2023-12-12T21:22:57.803Z,50.73
2023-12-12T21:30:05.141Z,50.72
2023-12-12T21:32:32.504Z,50.50
2023-12-12T21:35:02.393Z,50.74
2023-12-12T21:37:31.417Z,50.97
2023-12-12T21:40:06.520Z,50.88
2023-12-12T21:42:34.769Z,50.87
2023-12-12T21:45:02.273Z,50.77
2023-12-12T21:47:29.590Z,50.83
2023-12-12T21:49:56.990Z,51.06
2023-12-12T21:52:25.573Z,51.28
2023-12-12T21:54:52.984Z,51.21
2023-12-12T21:57:25.140Z,51.37
2023-12-12T21:59:53.139Z,51.42
2023-12-12T22:02:20.538Z,51.71
2023-12-12T22:04:48.047Z,51.46
2023-12-12T22:07:19.392Z,51.80
2023-12-12T22:09:49.911Z,51.97
2023-12-12T22:12:22.136Z,51.87
2023-12-12T22:14:50.616Z,51.89
2023-12-12T22:17:23.110Z,51.87
2023-12-12T22:20:01.560Z,52.00
2023-12-12T22:22:37.101Z,51.82
2023-12-12T22:25:10.456Z,51.72
2023-12-12T22:27:38.159Z,51.96
2023-12-12T22:30:06.953Z,51.89
2023-12-12T22:32:34.464Z,51.91
2023-12-12T22:35:16.191Z,51.92
2023-12-12T22:37:49.265Z,51.94
2023-12-12T22:40:24.256Z,52.04
2023-12-12T22:43:02.432Z,52.38
2023-12-12T22:50:09.012Z,52.38
2023-12-12T22:59:15.270Z,51.52
2023-12-12T23:02:24.783Z,51.39
2023-12-12T23:05:22.443Z,51.42
2023-12-12T23:07:51.076Z,51.44
2023-12-12T23:10:22.242Z,51.09
2023-12-12T23:12:49.621Z,51.27
2023-12-12T23:15:19.676Z,51.65
2023-12-12T23:17:46.820Z,51.52
2023-12-12T23:20:14.235Z,51.42
2023-12-12T23:22:41.410Z,51.14
2023-12-12T23:25:09.100Z,51.37
2023-12-12T23:27:36.597Z,51.55
2023-12-12T23:30:04.512Z,51.66
2023-12-12T23:32:31.693Z,51.75
2023-12-12T23:34:58.837Z,51.73
2023-12-12T23:37:25.968Z,51.53
2023-12-12T23:39:56.143Z,51.46
2023-12-12T23:42:23.216Z,51.91
2023-12-12T23:44:50.610Z,52.10
2023-12-12T23:47:17.971Z,52.25
2023-12-12T23:49:45.128Z,52.24
2023-12-12T23:52:12.483Z,51.97
2023-12-12T23:54:39.782Z,51.94
2023-12-12T23:57:06.916Z,52.31
2023-12-12T23:59:34.069Z,52.33
